KGPT

Gulfport-Biloxi International Airport

Gulfport, Mississippi, USA
METAR KGPT 270742Z AUTO 35004KT 7SM -RA FEW013 SCT023 SCT029 22/21 A2981 RMK AO2 LTG DSNT SW RAB31 P0004 T02220211
Observed Flight Rules
May-27 @ 07:42 UTC (8 minutes ago) Visual Flight Rules
Wind Visibility Clouds Conditions
350° at 4 knots 7 miles
  • Few at 1,300' AGL
  • Scattered at 2,300' AGL
  • Scattered at 2,900' AGL
  • Light Rain
Temperatures Readings Precipitation
Current 22°C / 72°F
Dewpoint 21°C / 70°F
Humidity 94%
Altimeter 29.81" Hg
Pressure 1009 hPa
Elevation 14
Current Rain 0.04
METAR KGPT 270742Z AUTO 35004KT 7SM -RA FEW013 SCT023 SCT029 22/21 A2981 RMK AO2 LTG DSNT SW RAB31 P0004 T02220211
Observed Flight Rules
May-27 @ 07:42 UTC
(8 minutes ago)
VFR
Wind Visibility
350° at 4 knots 7 miles
Clouds
  • Few at 1,300' AGL
  • Scattered at 2,300' AGL
  • Scattered at 2,900' AGL
Conditions
  • Light Rain
Temperature Dewpoint
22°C / 72°F 21°C / 70°F
Humidity Altimeter Pressure
94% 29.81" Hg 1009 hPa
Current Rain
0.04